Time;durP1;ratioP1;P1;durP2;ratioP2;P2;SDS_P1;SDS_P2;PMS_P1;PMS_P2;Temp;Humidity;BMP_temperature;BMP_pressure;BME280_temperature;BME280_humidity;BME280_pressure;Samples;Min_cycle;Max_cycle;Signal;HPM_P1;HPM_P2
2021/08/31 00:02:09;;;;;;;111.93;7.40;;;40.90;28.70;;;;;;4930495;29;20447;-60
2021/08/31 00:04:36;;;;;;;125.25;9.30;;;40.60;28.90;;;;;;4915107;29;20098;-59
2021/08/31 00:07:02;;;;;;;98.20;6.63;;;40.30;29.50;;;;;;4931628;29;20076;-62
2021/08/31 00:09:29;;;;;;;58.67;5.32;;;40.10;29.90;;;;;;4931554;29;20081;-63
2021/08/31 00:11:56;;;;;;;36.33;4.32;;;40.00;30.20;;;;;;4924740;29;20084;-63
2021/08/31 00:14:22;;;;;;;41.22;4.03;;;40.00;30.50;;;;;;4917243;29;20151;-63
2021/08/31 00:16:49;;;;;;;41.17;3.40;;;40.00;30.70;;;;;;4932255;29;20083;-63
2021/08/31 00:19:15;;;;;;;41.83;5.28;;;40.00;31.00;;;;;;4931087;29;20107;-65
2021/08/31 00:21:42;;;;;;;60.42;5.78;;;39.90;31.20;;;;;;4928725;29;20091;-61
2021/08/31 00:24:08;;;;;;;37.88;4.20;;;39.90;31.70;;;;;;4926991;29;20163;-60
2021/08/31 00:26:35;;;;;;;36.28;3.90;;;39.80;32.00;;;;;;4927020;29;20119;-64
2021/08/31 00:29:02;;;;;;;31.80;3.50;;;39.60;32.00;;;;;;4922747;29;20119;-63
2021/08/31 00:31:28;;;;;;;26.13;2.92;;;39.60;32.30;;;;;;4927894;29;20115;-63
2021/08/31 00:33:55;;;;;;;22.13;2.42;;;39.60;31.90;;;;;;4927751;29;20093;-61
2021/08/31 00:36:21;;;;;;;27.33;3.50;;;39.50;31.60;;;;;;4926315;29;20157;-62
2021/08/31 00:38:48;;;;;;;26.08;2.80;;;39.40;31.90;;;;;;4928618;29;20108;-63
2021/08/31 00:41:14;;;;;;;22.75;2.38;;;39.50;31.80;;;;;;4915703;29;20083;-63
2021/08/31 00:43:49;;;;;;;20.80;2.42;;;39.50;31.80;;;;;;4930753;29;20079;-63
2021/08/31 00:46:17;;;;;;;16.20;2.47;;;39.50;31.70;;;;;;4930743;29;20077;-62
2021/08/31 00:48:48;;;;;;;22.15;2.65;;;39.50;31.90;;;;;;4929066;29;20477;-62
2021/08/31 00:51:15;;;;;;;12.15;2.28;;;39.40;32.00;;;;;;4911110;29;20095;-63
2021/08/31 00:53:41;;;;;;;13.88;2.20;;;39.40;31.60;;;;;;4928059;29;20080;-62
2021/08/31 00:56:11;;;;;;;15.85;2.50;;;39.40;31.30;;;;;;4927815;29;20096;-63
2021/08/31 00:58:41;;;;;;;16.02;2.00;;;39.20;31.40;;;;;;4930671;29;20458;-64
2021/08/31 01:01:08;;;;;;;8.35;1.95;;;39.20;31.60;;;;;;4929462;29;20083;-62
2021/08/31 01:03:35;;;;;;;11.68;2.00;;;39.10;31.40;;;;;;4929555;29;20245;-63
2021/08/31 01:06:03;;;;;;;8.75;1.88;;;39.10;31.60;;;;;;4927655;29;20092;-62
2021/08/31 01:08:30;;;;;;;21.90;2.47;;;39.00;31.30;;;;;;4910199;29;20103;-62
2021/08/31 01:10:59;;;;;;;12.07;1.95;;;38.90;31.20;;;;;;4928735;29;20087;-62
2021/08/31 01:13:36;;;;;;;10.93;1.77;;;38.90;31.30;;;;;;4928658;29;20531;-61
2021/08/31 01:16:06;;;;;;;17.20;4.40;;;38.90;31.30;;;;;;4926327;29;20083;-62
2021/08/31 01:18:33;;;;;;;15.10;2.50;;;38.90;31.20;;;;;;4927387;29;20527;-64
2021/08/31 01:21:00;;;;;;;17.80;2.55;;;38.90;31.20;;;;;;4915773;29;20529;-63
2021/08/31 01:23:31;;;;;;;20.10;2.90;;;38.90;31.00;;;;;;4927096;29;20072;-62
2021/08/31 01:25:59;;;;;;;16.90;2.10;;;38.90;30.80;;;;;;4929018;29;20084;-64
2021/08/31 01:28:28;;;;;;;7.95;1.83;;;38.90;30.70;;;;;;4929107;29;20453;-63
2021/08/31 01:30:57;;;;;;;7.85;1.48;;;38.80;30.70;;;;;;4926768;29;20164;-63
2021/08/31 01:33:26;;;;;;;13.02;1.63;;;38.80;30.40;;;;;;4929407;29;20215;-63
2021/08/31 01:35:54;;;;;;;11.27;1.77;;;38.80;30.40;;;;;;4926587;29;20084;-64
2021/08/31 01:38:21;;;;;;;10.75;1.85;;;38.80;30.40;;;;;;4927417;29;20107;-63
2021/08/31 01:40:47;;;;;;;12.05;1.65;;;38.80;30.60;;;;;;4929232;29;20076;-63
2021/08/31 01:43:25;;;;;;;12.90;1.80;;;38.80;30.20;;;;;;4928023;29;20084;-60
2021/08/31 01:45:52;;;;;;;6.88;1.58;;;38.80;30.20;;;;;;4930644;29;20553;-60
2021/08/31 01:48:19;;;;;;;9.63;1.73;;;38.80;30.30;;;;;;4942918;28;20746;-60
2021/08/31 01:50:46;;;;;;;13.00;2.00;;;38.70;30.40;;;;;;4931254;29;20120;-62
2021/08/31 01:53:13;;;;;;;8.52;1.63;;;38.70;30.30;;;;;;4928789;29;20080;-62
2021/08/31 01:55:39;;;;;;;14.85;2.08;;;38.70;30.40;;;;;;4931450;29;20084;-62
2021/08/31 01:58:06;;;;;;;20.05;2.30;;;38.60;30.70;;;;;;4921931;29;20099;-62
2021/08/31 02:00:32;;;;;;;37.42;2.80;;;38.60;30.60;;;;;;4926287;29;20080;-62
2021/08/31 02:02:59;;;;;;;15.40;2.13;;;38.60;31.10;;;;;;4929702;29;20155;-60
2021/08/31 02:05:27;;;;;;;16.02;2.03;;;38.50;30.90;;;;;;4927469;29;20454;-62
2021/08/31 02:07:53;;;;;;;15.77;1.92;;;38.40;30.80;;;;;;4929525;29;20084;-61
2021/08/31 02:10:20;;;;;;;8.32;1.63;;;38.40;31.10;;;;;;4926750;29;20111;-69
2021/08/31 02:12:47;;;;;;;14.40;2.08;;;38.40;31.20;;;;;;4922426;29;20084;-69
2021/08/31 02:15:13;;;;;;;8.25;1.75;;;38.20;31.10;;;;;;4927580;29;20081;-68
2021/08/31 02:17:43;;;;;;;9.98;1.92;;;38.20;31.00;;;;;;4925198;29;20080;-69
2021/08/31 02:20:11;;;;;;;8.75;2.00;;;38.20;31.40;;;;;;4929097;29;20080;-69
2021/08/31 02:22:39;;;;;;;11.57;1.83;;;38.10;31.40;;;;;;4911434;29;20068;-69
2021/08/31 02:25:06;;;;;;;10.85;2.03;;;38.10;31.30;;;;;;4921646;29;20088;-70
2021/08/31 02:27:33;;;;;;;11.50;1.98;;;38.10;31.60;;;;;;4926465;29;20127;-69
2021/08/31 02:30:00;;;;;;;12.43;1.80;;;38.00;31.90;;;;;;4926397;29;20076;-68
2021/08/31 02:32:26;;;;;;;19.02;2.40;;;38.00;31.80;;;;;;4928632;29;20091;-70
2021/08/31 02:34:53;;;;;;;8.23;1.90;;;38.00;31.40;;;;;;4910096;29;20202;-70
2021/08/31 02:37:19;;;;;;;13.70;2.33;;;38.00;31.60;;;;;;4910242;29;20478;-69
2021/08/31 02:39:46;;;;;;;9.52;1.83;;;38.00;31.70;;;;;;4929137;29;20127;-70
2021/08/31 02:42:13;;;;;;;14.63;2.15;;;37.90;31.70;;;;;;4928263;29;20072;-69
2021/08/31 02:44:39;;;;;;;12.32;1.90;;;37.90;31.80;;;;;;4925566;29;20975;-69
2021/08/31 02:47:06;;;;;;;12.45;2.25;;;37.90;32.10;;;;;;4927377;29;20159;-68
2021/08/31 02:49:32;;;;;;;14.95;2.50;;;37.90;32.10;;;;;;4928687;29;20122;-69
2021/08/31 02:51:59;;;;;;;13.23;2.40;;;37.80;32.00;;;;;;4926651;29;20088;-69
2021/08/31 02:54:26;;;;;;;22.50;2.33;;;37.80;32.60;;;;;;4926166;29;20124;-69
2021/08/31 02:56:53;;;;;;;18.75;2.60;;;37.80;33.10;;;;;;4929989;29;20076;-69
2021/08/31 02:59:19;;;;;;;15.25;2.88;;;37.80;33.20;;;;;;4941075;29;20111;-69
2021/08/31 03:02:05;;;;;;;18.00;3.05;;;37.70;32.90;;;;;;4927290;29;20160;-69
2021/08/31 03:04:35;;;;;;;18.45;3.83;;;37.70;33.10;;;;;;4927453;29;20539;-69
2021/08/31 03:07:05;;;;;;;17.67;3.50;;;37.70;33.30;;;;;;4925937;29;20080;-68
2021/08/31 03:09:32;;;;;;;16.70;3.58;;;37.70;33.20;;;;;;4913044;29;20422;-69
2021/08/31 03:11:58;;;;;;;12.50;3.95;;;37.70;33.10;;;;;;4927704;29;20096;-69
2021/08/31 03:14:25;;;;;;;16.38;4.55;;;37.70;33.20;;;;;;4926219;29;20090;-70
2021/08/31 03:16:52;;;;;;;18.73;4.05;;;37.70;33.00;;;;;;4916728;29;20430;-69
2021/08/31 03:19:24;;;;;;;26.42;4.05;;;37.70;33.10;;;;;;4928243;29;20095;-69
2021/08/31 03:21:56;;;;;;;30.85;4.18;;;37.80;33.40;;;;;;4927207;29;20072;-71
2021/08/31 03:24:23;;;;;;;20.23;3.03;;;37.80;33.60;;;;;;4917703;29;20080;-71
2021/08/31 03:26:51;;;;;;;16.65;3.53;;;37.70;33.60;;;;;;4923988;29;20084;-70
2021/08/31 03:29:17;;;;;;;22.90;3.28;;;37.60;33.80;;;;;;4927692;29;20087;-70
2021/08/31 03:31:44;;;;;;;16.73;3.45;;;37.60;34.00;;;;;;4927703;29;20084;-70
2021/08/31 03:34:11;;;;;;;20.75;3.13;;;37.50;34.10;;;;;;4926813;29;20080;-70
2021/08/31 03:36:38;;;;;;;19.38;3.08;;;37.40;34.50;;;;;;4916610;29;20107;-70
2021/08/31 03:39:05;;;;;;;16.48;2.70;;;37.30;34.70;;;;;;4910012;29;20111;-70
2021/08/31 03:41:32;;;;;;;11.27;2.90;;;37.30;34.70;;;;;;4925874;29;20463;-69
2021/08/31 03:43:59;;;;;;;21.25;3.47;;;37.30;34.80;;;;;;4927779;29;20167;-69
2021/08/31 03:46:25;;;;;;;41.30;4.65;;;37.20;35.60;;;;;;4927324;29;20566;-70
2021/08/31 03:48:52;;;;;;;28.10;4.28;;;37.00;36.50;;;;;;4929263;29;20151;-69
2021/08/31 03:51:19;;;;;;;22.73;4.03;;;37.00;36.60;;;;;;4927496;29;20076;-69
2021/08/31 03:53:45;;;;;;;23.45;3.88;;;36.90;36.50;;;;;;4928816;29;20497;-70
2021/08/31 03:56:12;;;;;;;22.15;4.20;;;36.90;37.00;;;;;;4929124;29;20072;-69
2021/08/31 03:58:38;;;;;;;27.42;3.63;;;36.90;36.90;;;;;;4926902;29;20627;-69
2021/08/31 04:01:05;;;;;;;35.00;4.13;;;36.90;37.00;;;;;;4911102;29;20099;-69
2021/08/31 04:03:31;;;;;;;19.20;3.20;;;36.80;37.40;;;;;;4927461;29;20171;-68
2021/08/31 04:05:58;;;;;;;22.13;3.70;;;36.70;37.70;;;;;;4926976;29;20550;-69
2021/08/31 04:08:25;;;;;;;20.63;3.28;;;36.60;38.10;;;;;;4925372;29;20076;-68
2021/08/31 04:10:51;;;;;;;19.38;3.50;;;36.70;38.60;;;;;;4925437;29;20128;-69
2021/08/31 04:13:18;;;;;;;16.95;3.92;;;36.60;39.00;;;;;;4913942;29;20534;-69
2021/08/31 04:15:49;;;;;;;19.50;4.07;;;36.60;39.30;;;;;;4912136;29;20094;-69
2021/08/31 04:18:15;;;;;;;17.98;3.75;;;36.60;39.80;;;;;;4928799;29;20115;-69
2021/08/31 04:20:42;;;;;;;15.75;3.65;;;36.50;40.20;;;;;;4927091;29;20088;-68
2021/08/31 04:23:09;;;;;;;14.38;3.65;;;36.50;40.60;;;;;;4912673;29;20426;-68
2021/08/31 04:25:36;;;;;;;20.85;3.72;;;36.50;40.80;;;;;;4912448;29;21495;-69
2021/08/31 04:28:02;;;;;;;16.40;3.90;;;36.50;41.60;;;;;;4907207;29;20076;-71
2021/08/31 04:30:29;;;;;;;19.40;4.65;;;36.40;41.90;;;;;;4923783;29;20076;-69
2021/08/31 04:32:57;;;;;;;12.65;3.60;;;36.30;42.20;;;;;;4924643;29;20072;-70
2021/08/31 04:35:23;;;;;;;14.52;3.70;;;36.30;42.90;;;;;;4926131;29;20088;-68
2021/08/31 04:37:51;;;;;;;14.38;3.83;;;36.20;42.90;;;;;;4913731;29;20159;-69
2021/08/31 04:40:18;;;;;;;21.98;4.22;;;36.20;43.40;;;;;;4928320;29;20073;-70
2021/08/31 04:42:44;;;;;;;18.73;4.53;;;36.10;43.80;;;;;;4922505;29;20088;-70
2021/08/31 04:45:11;;;;;;;16.55;4.07;;;36.10;44.10;;;;;;4929021;29;20080;-69
2021/08/31 04:47:38;;;;;;;18.52;3.65;;;36.10;44.50;;;;;;4931726;29;20073;-70
2021/08/31 04:50:05;;;;;;;12.98;3.50;;;35.90;44.60;;;;;;4927826;29;20539;-69
2021/08/31 04:52:33;;;;;;;14.43;3.95;;;35.90;45.20;;;;;;4946873;28;20612;-68
2021/08/31 04:54:59;;;;;;;19.25;3.80;;;35.90;45.50;;;;;;4927630;29;20076;-68
2021/08/31 04:57:26;;;;;;;17.27;3.78;;;35.80;45.50;;;;;;4912763;29;20083;-70
2021/08/31 04:59:52;;;;;;;21.42;3.80;;;35.70;46.00;;;;;;4916917;29;20179;-69
2021/08/31 05:02:19;;;;;;;15.65;3.58;;;35.60;46.80;;;;;;4927878;29;20075;-69
2021/08/31 05:04:46;;;;;;;14.98;3.50;;;35.60;47.20;;;;;;4929650;29;20083;-69
2021/08/31 05:07:12;;;;;;;14.15;3.53;;;35.60;47.20;;;;;;4928462;29;20155;-69
2021/08/31 05:09:41;;;;;;;18.13;3.92;;;35.60;47.30;;;;;;4931082;29;20091;-68
2021/08/31 05:12:08;;;;;;;17.05;3.60;;;35.50;47.00;;;;;;4942935;28;20167;-69
2021/08/31 05:14:35;;;;;;;13.50;3.33;;;35.40;47.40;;;;;;4930892;29;20080;-69
2021/08/31 05:17:03;;;;;;;12.93;3.40;;;35.30;47.30;;;;;;4931363;29;20076;-69
2021/08/31 05:19:31;;;;;;;14.88;4.13;;;35.20;47.90;;;;;;4921229;23;20100;-69
2021/08/31 05:21:59;;;;;;;17.55;4.30;;;35.20;47.80;;;;;;4875741;29;20093;-69
2021/08/31 05:24:26;;;;;;;15.10;4.30;;;35.10;47.70;;;;;;4872185;29;20078;-68
2021/08/31 05:26:52;;;;;;;20.30;4.32;;;35.00;47.70;;;;;;4873406;29;20086;-69
2021/08/31 05:29:19;;;;;;;18.02;4.15;;;35.00;47.70;;;;;;4871232;29;20086;-70
2021/08/31 05:31:45;;;;;;;29.13;4.90;;;34.90;47.60;;;;;;4874158;29;20169;-68
2021/08/31 05:34:12;;;;;;;28.15;4.82;;;34.90;47.70;;;;;;4875592;29;20592;-69
2021/08/31 05:36:39;;;;;;;20.17;4.68;;;34.90;48.00;;;;;;4877558;29;20211;-69
2021/08/31 05:39:06;;;;;;;15.90;4.30;;;34.90;47.60;;;;;;4870898;29;20098;-63
2021/08/31 05:41:34;;;;;;;13.50;4.22;;;34.90;47.70;;;;;;4873401;29;20138;-64
2021/08/31 05:44:01;;;;;;;17.38;4.38;;;34.90;47.60;;;;;;4874950;29;20495;-62
2021/08/31 05:46:29;;;;;;;13.55;4.13;;;34.80;48.00;;;;;;4874029;29;20166;-63
2021/08/31 05:48:56;;;;;;;18.85;4.50;;;34.80;47.90;;;;;;4873099;29;20096;-63
2021/08/31 05:51:22;;;;;;;12.23;3.80;;;34.80;47.50;;;;;;4875867;29;20444;-63
2021/08/31 05:53:49;;;;;;;14.73;3.97;;;34.70;47.40;;;;;;4871741;29;20082;-64
2021/08/31 05:56:15;;;;;;;16.23;4.18;;;34.70;47.70;;;;;;4877125;29;20076;-63
2021/08/31 05:58:42;;;;;;;12.88;3.25;;;34.70;47.30;;;;;;4874024;29;20102;-63
2021/08/31 06:01:08;;;;;;;12.68;4.43;;;34.70;47.20;;;;;;4875973;29;20655;-63
2021/08/31 06:03:35;;;;;;;18.13;3.70;;;34.60;47.10;;;;;;4877528;29;20528;-63
2021/08/31 06:06:01;;;;;;;14.55;3.55;;;34.70;46.80;;;;;;4877535;29;21545;-63
2021/08/31 06:08:31;;;;;;;14.18;3.42;;;34.60;46.40;;;;;;4877993;29;20077;-63
2021/08/31 06:10:57;;;;;;;13.25;2.80;;;34.60;46.00;;;;;;4873753;29;20093;-63
2021/08/31 06:13:24;;;;;;;11.70;3.20;;;34.60;45.90;;;;;;4876929;29;20555;-63
2021/08/31 06:15:50;;;;;;;15.18;3.13;;;34.50;45.60;;;;;;4876428;29;20078;-61
2021/08/31 06:18:17;;;;;;;10.85;3.10;;;34.50;45.50;;;;;;4874460;29;20479;-63
2021/08/31 06:20:43;;;;;;;15.07;3.63;;;34.60;45.40;;;;;;4876378;29;20137;-63
2021/08/31 06:23:11;;;;;;;12.40;3.65;;;34.60;45.30;;;;;;4874518;29;20088;-63
2021/08/31 06:25:38;;;;;;;13.77;3.05;;;34.60;45.10;;;;;;4872758;29;20185;-62
2021/08/31 06:28:05;;;;;;;9.60;3.30;;;34.60;45.20;;;;;;4873659;29;20533;-63
2021/08/31 06:30:31;;;;;;;12.60;3.50;;;34.60;45.30;;;;;;4874134;29;20131;-63
2021/08/31 06:32:58;;;;;;;18.65;3.88;;;34.60;45.50;;;;;;4875373;29;20080;-62
2021/08/31 06:35:24;;;;;;;24.38;4.50;;;34.60;45.60;;;;;;4877403;29;21574;-64
2021/08/31 06:37:51;;;;;;;17.50;3.63;;;34.50;45.70;;;;;;4877050;29;20137;-64
2021/08/31 06:40:17;;;;;;;22.35;4.15;;;34.40;45.80;;;;;;4874758;29;20153;-63
2021/08/31 06:42:44;;;;;;;20.50;4.25;;;34.40;45.70;;;;;;4878170;29;20073;-62
2021/08/31 06:45:11;;;;;;;19.50;4.75;;;34.30;45.70;;;;;;4877387;29;20096;-62
2021/08/31 06:47:37;;;;;;;26.00;4.90;;;34.40;45.70;;;;;;4876113;29;20116;-63
2021/08/31 06:50:04;;;;;;;22.95;4.65;;;34.40;45.60;;;;;;4875269;29;20168;-64
2021/08/31 06:52:30;;;;;;;16.98;4.45;;;34.20;45.60;;;;;;4876736;29;20132;-63
2021/08/31 06:54:57;;;;;;;12.35;4.15;;;34.20;45.70;;;;;;4873022;29;20081;-63
2021/08/31 06:57:23;;;;;;;18.75;4.10;;;34.20;45.70;;;;;;4875390;29;20113;-64
2021/08/31 06:59:50;;;;;;;12.57;3.60;;;34.10;46.30;;;;;;4876487;29;20582;-63
2021/08/31 07:02:16;;;;;;;10.68;3.47;;;34.10;46.00;;;;;;4876605;29;20496;-64
2021/08/31 07:04:43;;;;;;;9.07;3.47;;;34.10;46.00;;;;;;4873874;29;20124;-64
2021/08/31 07:07:09;;;;;;;19.63;3.50;;;34.10;46.20;;;;;;4875105;29;20077;-64
2021/08/31 07:09:36;;;;;;;11.80;3.25;;;34.10;45.90;;;;;;4874570;29;20084;-64
2021/08/31 07:12:02;;;;;;;12.38;4.00;;;34.00;46.10;;;;;;4872407;29;20489;-64
2021/08/31 07:14:29;;;;;;;13.07;3.10;;;34.00;46.50;;;;;;4877694;29;20189;-63
2021/08/31 07:16:56;;;;;;;10.48;2.80;;;33.90;46.70;;;;;;4875945;29;20085;-63
2021/08/31 07:19:22;;;;;;;10.93;2.50;;;33.90;46.70;;;;;;4872975;29;20160;-62
2021/08/31 07:21:50;;;;;;;7.40;2.78;;;33.90;46.50;;;;;;4874979;29;20106;-62
2021/08/31 07:24:16;;;;;;;12.25;2.63;;;33.80;46.50;;;;;;4873323;29;20088;-62
2021/08/31 07:26:43;;;;;;;16.92;3.20;;;33.70;46.90;;;;;;4875791;29;20073;-61
2021/08/31 07:29:09;;;;;;;20.35;3.80;;;33.70;47.00;;;;;;4871962;29;20078;-62
2021/08/31 07:31:36;;;;;;;9.95;3.20;;;33.80;46.90;;;;;;4874294;29;20081;-60
2021/08/31 07:34:03;;;;;;;7.50;3.05;;;33.80;46.90;;;;;;4876136;29;20128;-62
2021/08/31 07:36:29;;;;;;;12.32;3.15;;;33.70;47.00;;;;;;4874697;29;20591;-61
2021/08/31 07:38:56;;;;;;;9.85;3.30;;;33.70;47.30;;;;;;4874225;29;20101;-61
2021/08/31 07:41:23;;;;;;;10.70;3.33;;;33.60;47.70;;;;;;4876879;29;20077;-62
2021/08/31 07:43:50;;;;;;;14.02;3.10;;;33.60;47.90;;;;;;4875432;29;20551;-62
2021/08/31 07:46:18;;;;;;;10.70;3.05;;;33.60;48.00;;;;;;4874631;29;20090;-62
2021/08/31 07:48:44;;;;;;;14.65;3.50;;;33.60;48.10;;;;;;4874933;29;20078;-62
2021/08/31 07:51:11;;;;;;;9.85;2.55;;;33.60;48.30;;;;;;4876125;29;20158;-62
2021/08/31 07:53:38;;;;;;;12.02;2.90;;;33.70;48.80;;;;;;4873812;29;21620;-62
2021/08/31 07:56:05;;;;;;;9.70;2.95;;;33.60;48.90;;;;;;4875081;29;20089;-61
2021/08/31 07:58:36;;;;;;;8.68;2.75;;;33.60;48.70;;;;;;4871262;29;20566;-61
2021/08/31 08:01:04;;;;;;;9.52;2.65;;;33.60;49.00;;;;;;4872129;29;20077;-62
2021/08/31 08:03:30;;;;;;;10.18;2.78;;;33.60;49.00;;;;;;4873940;29;20129;-63
2021/08/31 08:05:57;;;;;;;13.15;2.70;;;33.50;48.50;;;;;;4874153;29;20161;-61
2021/08/31 08:08:23;;;;;;;7.80;2.70;;;33.50;48.90;;;;;;4873167;29;20086;-62
2021/08/31 08:10:51;;;;;;;12.75;3.13;;;33.50;49.00;;;;;;4874020;29;20085;-62
2021/08/31 08:13:18;;;;;;;12.90;2.97;;;33.50;49.00;;;;;;4877118;29;20476;-62
2021/08/31 08:15:45;;;;;;;7.13;2.40;;;33.50;49.10;;;;;;4873601;29;20161;-63
2021/08/31 08:18:11;;;;;;;8.85;2.50;;;33.50;49.10;;;;;;4881087;29;20421;-63
2021/08/31 08:20:41;;;;;;;11.73;2.38;;;33.40;49.10;;;;;;4879945;29;20116;-62
2021/08/31 08:23:10;;;;;;;13.23;2.90;;;33.30;49.20;;;;;;4876710;29;20166;-63
2021/08/31 08:25:36;;;;;;;8.95;2.90;;;33.30;49.40;;;;;;4876077;29;20094;-63
2021/08/31 08:28:03;;;;;;;11.23;2.28;;;33.20;49.50;;;;;;4874889;29;20444;-62
2021/08/31 08:30:29;;;;;;;11.48;2.42;;;33.20;49.70;;;;;;4880328;29;20077;-63
2021/08/31 08:32:56;;;;;;;10.18;2.85;;;33.20;49.90;;;;;;4879735;29;20531;-62
2021/08/31 08:35:22;;;;;;;10.63;2.88;;;33.20;49.80;;;;;;4875737;29;20129;-62
2021/08/31 08:37:52;;;;;;;12.55;2.20;;;33.20;49.80;;;;;;4876566;29;20173;-61
2021/08/31 08:40:19;;;;;;;14.65;3.13;;;33.20;49.90;;;;;;4880128;29;20134;-63
2021/08/31 08:42:45;;;;;;;13.88;3.05;;;33.20;50.10;;;;;;4876639;29;20161;-63
2021/08/31 08:45:12;;;;;;;12.93;3.08;;;33.20;50.20;;;;;;4879856;29;20081;-63
2021/08/31 08:47:39;;;;;;;14.75;2.90;;;33.20;50.20;;;;;;4881558;29;20081;-63
2021/08/31 08:50:06;;;;;;;14.55;3.15;;;33.10;50.40;;;;;;4876135;29;20074;-63
2021/08/31 08:52:34;;;;;;;15.45;3.45;;;33.20;50.60;;;;;;4874153;29;20096;-63
2021/08/31 08:55:00;;;;;;;13.68;3.90;;;33.10;50.70;;;;;;4878683;29;20085;-63
2021/08/31 08:57:29;;;;;;;15.98;3.80;;;33.10;51.20;;;;;;4877415;29;20109;-63
2021/08/31 08:59:56;;;;;;;15.95;4.22;;;33.10;51.70;;;;;;4876485;29;20184;-62
2021/08/31 09:02:44;;;;;;;10.40;4.10;;;33.00;52.40;;;;;;4879335;29;20153;-63
2021/08/31 09:05:14;;;;;;;20.17;4.85;;;33.00;52.50;;;;;;4878586;29;20070;-63
2021/08/31 09:07:42;;;;;;;16.42;4.20;;;33.10;52.90;;;;;;4876065;29;20073;-62
2021/08/31 09:10:16;;;;;;;14.88;4.10;;;33.10;53.20;;;;;;4879412;29;20081;-62
2021/08/31 09:12:46;;;;;;;14.18;4.13;;;33.00;53.70;;;;;;4877372;29;20084;-62
2021/08/31 09:15:28;;;;;;;14.73;4.10;;;33.00;54.10;;;;;;4876991;29;20214;-62
2021/08/31 09:18:25;;;;;;;16.23;4.25;;;33.00;54.60;;;;;;4876069;29;20081;-62
2021/08/31 09:20:54;;;;;;;13.95;4.40;;;33.00;54.60;;;;;;4873081;29;20113;-62
2021/08/31 09:23:26;;;;;;;17.40;4.13;;;32.90;54.30;;;;;;4877994;29;20150;-61
2021/08/31 09:25:56;;;;;;;11.00;3.80;;;32.80;54.30;;;;;;4875170;29;20077;-61
2021/08/31 09:28:28;;;;;;;11.50;3.58;;;32.70;54.70;;;;;;4872469;29;20074;-63
2021/08/31 09:31:00;;;;;;;13.40;3.53;;;32.70;54.80;;;;;;4873862;29;20109;-61
2021/08/31 09:33:29;;;;;;;14.90;3.78;;;32.70;55.20;;;;;;4875308;29;20082;-62
2021/08/31 09:36:02;;;;;;;8.88;3.65;;;32.70;55.20;;;;;;4877750;29;20085;-62
2021/08/31 09:38:46;;;;;;;14.43;4.25;;;32.60;55.50;;;;;;4876061;29;20125;-63
2021/08/31 09:41:29;;;;;;;16.67;4.68;;;32.60;55.60;;;;;;4873196;29;20078;-62
2021/08/31 09:43:57;;;;;;;15.63;5.43;;;32.60;55.70;;;;;;4877903;29;20162;-63
2021/08/31 09:46:24;;;;;;;22.67;6.18;;;32.60;55.70;;;;;;4879652;29;20093;-62
2021/08/31 09:48:50;;;;;;;25.17;7.43;;;32.60;55.80;;;;;;4876775;29;20078;-62
2021/08/31 09:51:17;;;;;;;26.52;11.05;;;32.60;55.80;;;;;;4873186;29;20520;-62
2021/08/31 09:53:44;;;;;;;21.35;8.15;;;32.60;56.20;;;;;;4875509;29;20089;-63
2021/08/31 09:56:14;;;;;;;27.60;8.02;;;32.50;55.90;;;;;;4877274;29;20074;-62
2021/08/31 09:58:45;;;;;;;31.38;8.95;;;32.50;56.20;;;;;;4876250;29;20101;-62
2021/08/31 10:01:12;;;;;;;21.77;9.60;;;32.50;57.00;;;;;;4877614;29;20124;-62
2021/08/31 10:03:40;;;;;;;20.65;8.63;;;32.50;56.30;;;;;;4875656;29;20141;-63
2021/08/31 10:06:07;;;;;;;23.15;8.45;;;32.50;56.30;;;;;;4875622;29;20132;-62
2021/08/31 10:08:35;;;;;;;20.63;7.95;;;32.50;56.30;;;;;;4874450;29;20168;-63
2021/08/31 10:11:03;;;;;;;18.60;7.55;;;32.50;56.40;;;;;;4869646;29;20089;-62
2021/08/31 10:13:36;;;;;;;16.33;6.88;;;32.50;57.10;;;;;;4871507;29;20233;-62
2021/08/31 10:16:02;;;;;;;17.65;5.20;;;32.50;56.50;;;;;;4870994;29;20069;-64
2021/08/31 10:18:29;;;;;;;21.23;5.13;;;32.50;56.40;;;;;;4875105;29;20094;-61
2021/08/31 10:21:08;;;;;;;14.80;4.72;;;32.50;56.50;;;;;;4873505;29;20670;-61
2021/08/31 10:23:42;;;;;;;14.43;4.15;;;32.50;56.70;;;;;;4875570;29;20081;-62
2021/08/31 10:26:34;;;;;;;10.95;3.40;;;32.50;56.90;;;;;;4874647;29;20088;-63
2021/08/31 10:29:19;;;;;;;12.68;3.47;;;32.50;57.30;;;;;;4873468;29;20548;-62
2021/08/31 10:31:47;;;;;;;11.57;3.15;;;32.50;57.60;;;;;;4877004;29;20078;-63
2021/08/31 10:34:39;;;;;;;14.38;3.85;;;32.40;57.90;;;;;;4872152;29;20116;-63
2021/08/31 10:37:10;;;;;;;10.43;3.65;;;32.40;58.40;;;;;;4876148;29;20158;-63
2021/08/31 10:39:57;;;;;;;11.23;4.10;;;32.40;58.70;;;;;;4877183;29;20169;-63
2021/08/31 10:42:32;;;;;;;15.20;4.15;;;32.50;58.90;;;;;;4875297;29;20087;-63
2021/08/31 10:45:26;;;;;;;13.38;4.10;;;32.50;58.80;;;;;;4874663;29;20484;-63
2021/08/31 10:47:52;;;;;;;12.23;3.45;;;32.50;59.90;;;;;;4872582;29;20085;-63
2021/08/31 10:50:30;;;;;;;10.68;3.40;;;32.40;59.80;;;;;;4874634;29;20081;-63
2021/08/31 10:53:04;;;;;;;15.23;3.38;;;32.40;60.00;;;;;;4870919;29;20138;-62
2021/08/31 10:55:37;;;;;;;8.18;3.30;;;32.40;60.00;;;;;;4874541;29;20073;-63
2021/08/31 10:58:08;;;;;;;11.73;3.60;;;32.40;60.10;;;;;;4875102;29;20089;-63
2021/08/31 11:00:35;;;;;;;12.25;3.50;;;32.40;60.30;;;;;;4875581;29;20082;-62
2021/08/31 11:03:01;;;;;;;13.48;3.60;;;32.40;60.40;;;;;;4872538;29;20143;-63
2021/08/31 11:05:30;;;;;;;14.75;3.78;;;32.40;60.40;;;;;;4872998;29;20611;-63
2021/08/31 11:08:00;;;;;;;16.55;3.95;;;32.40;60.40;;;;;;4871009;29;20081;-63
2021/08/31 11:10:33;;;;;;;12.50;3.67;;;32.40;60.40;;;;;;4872323;29;20096;-63
2021/08/31 11:13:16;;;;;;;12.60;3.72;;;32.40;60.60;;;;;;4872838;29;20070;-63
2021/08/31 11:15:44;;;;;;;13.48;3.50;;;32.30;60.70;;;;;;4869561;29;20073;-63
2021/08/31 11:18:13;;;;;;;19.08;4.47;;;32.20;61.20;;;;;;4872693;29;20516;-63
2021/08/31 11:20:45;;;;;;;18.92;4.90;;;32.20;61.60;;;;;;4874621;29;20121;-62
2021/08/31 11:23:18;;;;;;;15.85;4.55;;;32.10;61.90;;;;;;4872998;29;20092;-63
2021/08/31 11:25:50;;;;;;;16.88;3.95;;;32.10;63.30;;;;;;4875181;29;20077;-62
2021/08/31 11:28:19;;;;;;;13.75;5.50;;;32.00;63.00;;;;;;4874307;29;20178;-63
2021/08/31 11:30:53;;;;;;;20.85;6.05;;;32.00;63.20;;;;;;4873071;29;20074;-63
2021/08/31 11:33:27;;;;;;;15.25;6.30;;;31.90;63.40;;;;;;4871669;29;20176;-62
2021/08/31 11:36:06;;;;;;;21.60;7.18;;;31.90;63.50;;;;;;4873071;29;20120;-63
2021/08/31 11:38:37;;;;;;;23.27;6.88;;;31.90;63.70;;;;;;4872982;29;20102;-63
2021/08/31 11:41:43;;;;;;;28.88;7.88;;;31.90;63.60;;;;;;4868287;29;20176;-63
2021/08/31 11:44:10;;;;;;;25.80;7.93;;;32.00;63.90;;;;;;4875217;29;20088;-62
2021/08/31 11:46:41;;;;;;;23.15;8.20;;;31.90;64.10;;;;;;4874193;29;20120;-61
2021/08/31 11:49:09;;;;;;;20.80;7.45;;;31.90;64.60;;;;;;4877533;29;20506;-62
2021/08/31 11:51:36;;;;;;;19.17;7.25;;;31.80;64.80;;;;;;4876937;29;20073;-63
2021/08/31 11:54:09;;;;;;;21.92;7.75;;;31.90;65.10;;;;;;4875996;29;20080;-63
2021/08/31 11:56:37;;;;;;;12.68;5.47;;;31.90;65.00;;;;;;4877950;29;20090;-62
2021/08/31 11:59:04;;;;;;;12.88;4.20;;;31.80;65.10;;;;;;4877315;29;20588;-62
2021/08/31 12:01:33;;;;;;;17.08;4.47;;;31.90;65.50;;;;;;4880610;29;20066;-63
2021/08/31 12:04:19;;;;;;;13.77;3.55;;;31.80;65.30;;;;;;4876571;29;20141;-63
2021/08/31 12:06:49;;;;;;;11.68;3.60;;;31.80;65.50;;;;;;4875505;29;20077;-61
2021/08/31 12:09:26;;;;;;;9.68;3.58;;;31.70;65.80;;;;;;4878135;29;20190;-63
2021/08/31 12:11:54;;;;;;;13.07;3.60;;;31.70;66.20;;;;;;4874298;29;20085;-63
2021/08/31 12:14:20;;;;;;;10.13;3.55;;;31.70;66.20;;;;;;4877100;29;20100;-62
2021/08/31 12:16:48;;;;;;;11.93;3.30;;;31.80;66.30;;;;;;4878363;29;20101;-63
2021/08/31 12:19:24;;;;;;;12.95;3.10;;;31.80;66.60;;;;;;4880285;29;20129;-62
2021/08/31 12:22:09;;;;;;;12.95;3.45;;;31.80;66.60;;;;;;4876179;29;20672;-63
2021/08/31 12:24:37;;;;;;;9.18;3.20;;;31.70;67.00;;;;;;4874781;29;20173;-63
2021/08/31 12:27:16;;;;;;;10.50;3.55;;;31.70;67.10;;;;;;4878210;29;20160;-62
2021/08/31 12:29:50;;;;;;;12.07;3.53;;;31.60;67.30;;;;;;4877485;29;20137;-61
2021/08/31 12:32:31;;;;;;;11.85;3.70;;;31.60;67.70;;;;;;4877020;29;20386;-62
2021/08/31 12:35:26;;;;;;;11.23;3.53;;;31.60;67.90;;;;;;4875901;29;20085;-63
2021/08/31 12:38:17;;;;;;;11.27;3.38;;;31.50;68.40;;;;;;4874945;29;20447;-61
2021/08/31 12:40:58;;;;;;;15.55;4.07;;;31.50;68.70;;;;;;4879673;29;20183;-62
2021/08/31 12:43:42;;;;;;;10.43;3.42;;;31.60;69.00;;;;;;4877343;29;20148;-61
2021/08/31 12:46:09;;;;;;;11.00;3.60;;;31.60;69.00;;;;;;4875532;29;20081;-62
2021/08/31 12:48:47;;;;;;;11.88;3.70;;;31.50;69.20;;;;;;4879359;29;20085;-62